Aviation Digital Data Service (ADDS)

Output produced by METARs form (1254 UTC 21 February 2018)
found at http://www.aviationweather.gov/adds/metars/
 
TAF SBCB 201500Z 2018/2118 09020KT 9999 SCT025 FEW030TCU TN25/2109Z T X32/2116Z 
     PROB30 2018/2021 TS SCT020 FEW030CB 
     BECMG 2021/2022 06015KT SCT020 B ECMG 2101/2103 06010KT FEW020 
     BECMG 2109/2110 06015KT 
     BECMG 2112/2115 060 20KT SCT020 
     BECMG 2116/2118 09020KT SCT025 FEW030TCU RMK PGS